Startpagina
METAR-TAF:

METAR-TAF

Vliegvelden :

Brussels Airport. Zaventem

Brussel, België

breedte: 50-54N, lengte: 004-32E, hoogte: 55 m

Actueel weer

Dit bericht is 35 minuten geleden gemaakt, om 20:50 UTC
Wind 6 kt uit het westnoordwesten
Temperatuur 19°C
Vochtigheid 56%
Druk 1014 hPa
Zicht 10 km of meer
geen wolken onder 1500 m en geen cumulonimbus

METAR: EBBR 212050Z 30006KT CAVOK 19/10 Q1014 NOSIG

Tijdstip: 23:25 (21:25 UTC)

Verwachting

Dit bericht is 3 uur en het 55 minuten geleden gemaakt, om 17:30 UTC
Verwachting geldig van 21 om 18 UTC tot 22 om 24 UTC
Wind 5 kt uit het noordwesten
Zicht 10 km of meer
geen wolken onder 1500 m en geen cumulonimbus

TAF: EBBR 211730Z 2118/2224 31005KT CAVOK

Waarnemingen en weersverwachtingen van meer dan 4000 vliegvelden (METAR en TAF).

De beschikbare stations zijn de gele en rode punten op de kaart.

Ga met uw muis naar het station om de naam te zien.

Klik dan om waarnemingen en weersverwachtingen te zien.

kaart wijzigen: klik op de groene knoppen met een zwart kruis om in te zoomen, op de groene knop met een streepje om uit te zoomen of op de groene pijlen voor aangrenzende kaarten.


METAR-TAF: